Погода Картыжина 2 недели

Могилёвская область, Белоруссия

21 мая-03 июня
  • 21мая
    Сегодня
    +12°
    +25°
    Небольшая облачность
    ВремяПогодаТемператураВлажностьДавлениеВетер, м/сВероятность осадков
    00:00Ясно и безоблачно+15°C90 %747 мм1.8 м/с2 %
    03:00Ясно и безоблачно+12°C93 %747 мм1.7 м/с2 %
    06:00Ясно и безоблачно+12°C91 %747 мм1.8 м/с2 %
    09:00Практически безоблачно+20°C74 %748 мм1.2 м/с2 %
    12:00Практически безоблачно+23°C61 %748 мм2.7 м/с9 %
    15:00Небольшая облачность+25°C57 %748 мм2.6 м/с20 %
    18:00Облачно с прояснениями+22°C53 %747 мм2.2 м/с45 %
    21:00Облачно с прояснениями+18°C77 %748 мм2.0 м/с24 %
  • 22мая
    Среда
    +13°
    +24°
    Небольшая облачность
    ВремяПогодаТемператураВлажностьДавлениеВетер, м/сВероятность осадков
    00:00Практически безоблачно+15°C90 %747 мм2.1 м/с2 %
    03:00Практически безоблачно+13°C93 %747 мм2.0 м/с2 %
    06:00Ясно и безоблачно+13°C92 %748 мм2.5 м/с2 %
    09:00Ясно и безоблачно+20°C78 %749 мм1.8 м/с3 %
    12:00Небольшая облачность+23°C62 %749 мм3.1 м/с18 %
    15:00Небольшая облачность+23°C64 %748 мм2.8 м/с49 %
    18:00Небольшая облачность, возможен дождь с грозой+21°C84 %749 мм2.9 м/с64 %
    21:00Облачно с прояснениями+17°C93 %749 мм2.1 м/с37 %
  • 23мая
    Четверг
    +9°
    +23°
    Ясно и безоблачно
    ВремяПогодаТемператураВлажностьДавлениеВетер, м/сВероятность осадков
    00:00Ясно и безоблачно+15°C94 %749 мм2.6 м/с6 %
    03:00Ясно и безоблачно+14°C94 %750 мм2.9 м/с6 %
    06:00Ясно и безоблачно+14°C82 %750 мм3.8 м/с5 %
    09:00Ясно и безоблачно+17°C69 %751 мм4.4 м/с2 %
    12:00Ясно и безоблачно+21°C60 %752 мм5.8 м/с17 %
    15:00Ясно и безоблачно+22°C52 %752 мм5.8 м/с20 %
    18:00Ясно и безоблачно+22°C52 %752 мм5.5 м/с13 %
    21:00Ясно и безоблачно+18°C54 %753 мм3.7 м/с3 %
  • 24мая
    Пятница
    +9°
    +22°
    Ясно и безоблачно
    ВремяПогодаТемператураВлажностьДавлениеВетер, м/сВероятность осадков
    00:00Ясно и безоблачно+14°C57 %754 мм4.0 м/с2 %
    03:00Ясно и безоблачно+12°C61 %754 мм3.6 м/с2 %
    06:00Ясно и безоблачно+10°C62 %755 мм3.8 м/с2 %
    09:00Ясно и безоблачно+15°C57 %756 мм3.9 м/с2 %
    12:00Ясно и безоблачно+20°C51 %756 мм4.9 м/с2 %
    15:00Ясно и безоблачно+22°C48 %756 мм4.6 м/с2 %
    18:00Ясно и безоблачно+22°C49 %755 мм4.2 м/с2 %
    21:00Ясно и безоблачно+17°C61 %755 мм2.9 м/с2 %
  • 25мая
    Суббота
    +9°
    +23°
    Небольшая облачность
    ВремяПогодаТемператураВлажностьДавлениеВетер, м/сВероятность осадков
    00:00Ясно и безоблачно+13°C66 %756 мм2.8 м/с2 %
    03:00Ясно и безоблачно+11°C71 %756 мм2.6 м/с2 %
    06:00Ясно и безоблачно+9°C70 %756 мм3.0 м/с2 %
    09:00Ясно и безоблачно+16°C57 %756 мм2.6 м/с4 %
    12:00Практически безоблачно+21°C40 %756 мм4.2 м/с4 %
    15:00Небольшая облачность+22°C38 %755 мм3.6 м/с8 %
    18:00Облачно с прояснениями+23°C41 %754 мм3.2 м/с10 %
    21:00Практически безоблачно+17°C67 %754 мм2.0 м/с4 %
Мы используем cookies
Соглашаюсь